Time;durP1;ratioP1;P1;durP2;ratioP2;P2;SDS_P1;SDS_P2;PMS_P1;PMS_P2;Temp;Humidity;BMP_temperature;BMP_pressure;BME280_temperature;BME280_humidity;BME280_pressure;Samples;Min_cycle;Max_cycle;Signal;HPM_P1;HPM_P2
2022/12/06 00:00:45;;;;;;;17.07;9.27;;;1.70;99.90;;;;;;5080089;28;20205;-81
2022/12/06 00:03:10;;;;;;;13.73;8.70;;;1.80;99.90;;;;;;5098287;28;20254;-81
2022/12/06 00:05:36;;;;;;;14.93;9.17;;;1.80;99.90;;;;;;5098696;28;20202;-82
2022/12/06 00:08:01;;;;;;;12.27;8.30;;;1.80;99.90;;;;;;5098149;28;20539;-82
2022/12/06 00:10:27;;;;;;;11.47;8.83;;;1.70;99.90;;;;;;5098198;28;20220;-82
2022/12/06 00:12:53;;;;;;;14.60;9.50;;;1.70;99.90;;;;;;5079643;28;20254;-81
2022/12/06 00:15:18;;;;;;;15.33;9.33;;;1.70;99.90;;;;;;5098744;28;20209;-82
2022/12/06 00:17:44;;;;;;;14.73;9.47;;;1.70;99.90;;;;;;5079836;28;20198;-82
2022/12/06 00:20:10;;;;;;;14.40;8.60;;;1.70;99.90;;;;;;5098405;28;20166;-82
2022/12/06 00:22:36;;;;;;;12.47;8.43;;;1.70;99.90;;;;;;5079753;28;20223;-81
2022/12/06 00:25:02;;;;;;;15.13;9.27;;;1.70;99.90;;;;;;5080209;28;20178;-81
2022/12/06 00:27:27;;;;;;;12.73;9.03;;;1.70;99.90;;;;;;5098726;28;20200;-82
2022/12/06 00:29:53;;;;;;;14.03;9.03;;;1.70;99.90;;;;;;5081055;28;20178;-81
2022/12/06 00:32:18;;;;;;;11.97;8.17;;;1.70;99.90;;;;;;5080240;28;20178;-82
2022/12/06 00:34:44;;;;;;;14.77;8.07;;;1.70;99.90;;;;;;5098340;28;20578;-82
2022/12/06 00:37:10;;;;;;;16.13;8.77;;;1.80;99.90;;;;;;5098937;28;20212;-81
2022/12/06 00:39:35;;;;;;;12.03;8.63;;;1.80;99.90;;;;;;5076404;28;20271;-80
2022/12/06 00:42:01;;;;;;;12.47;8.57;;;1.80;99.90;;;;;;5076252;28;20178;-80
2022/12/06 00:44:27;;;;;;;15.57;9.40;;;1.80;99.90;;;;;;5094543;28;20178;-81
2022/12/06 00:46:52;;;;;;;13.23;8.47;;;1.80;99.90;;;;;;5075974;28;20247;-81
2022/12/06 00:49:18;;;;;;;13.57;9.60;;;1.80;99.90;;;;;;5076234;28;20189;-81
2022/12/06 00:51:43;;;;;;;13.70;9.47;;;1.80;99.90;;;;;;5094093;28;20641;-80
2022/12/06 00:54:13;;;;;;;11.77;8.87;;;1.70;99.90;;;;;;5076646;28;20210;-81
2022/12/06 00:56:38;;;;;;;14.23;9.13;;;1.80;99.90;;;;;;5095058;28;20186;-80
2022/12/06 00:59:05;;;;;;;12.10;8.77;;;1.80;99.90;;;;;;5094762;28;20170;-81
2022/12/06 01:01:32;;;;;;;12.83;7.53;;;1.70;99.90;;;;;;5076674;28;20185;-80
2022/12/06 01:04:00;;;;;;;13.43;8.40;;;1.80;99.90;;;;;;5077326;28;20598;-81
2022/12/06 01:06:31;;;;;;;10.80;7.57;;;1.70;99.90;;;;;;5095352;28;20273;-80
2022/12/06 01:09:00;;;;;;;11.20;7.57;;;1.70;99.90;;;;;;5095286;28;20174;-81
2022/12/06 01:11:26;;;;;;;13.37;7.87;;;1.70;99.90;;;;;;5093866;28;20173;-80
2022/12/06 01:13:53;;;;;;;14.40;8.03;;;1.70;99.90;;;;;;5075880;28;20727;-80
2022/12/06 01:16:25;;;;;;;15.10;8.27;;;1.70;99.90;;;;;;5076235;28;20181;-81
2022/12/06 01:18:53;;;;;;;13.90;8.67;;;1.70;99.90;;;;;;5075547;28;20173;-80
2022/12/06 01:21:20;;;;;;;16.87;9.13;;;1.70;99.90;;;;;;5093813;28;20227;-80
2022/12/06 01:23:46;;;;;;;14.63;8.73;;;1.70;99.90;;;;;;5078096;28;20227;-80
2022/12/06 01:26:23;;;;;;;16.17;9.20;;;1.70;99.90;;;;;;5080202;28;20185;-81
2022/12/06 01:28:49;;;;;;;21.23;10.53;;;1.70;99.90;;;;;;5098626;28;20169;-80
2022/12/06 01:31:15;;;;;;;17.53;9.97;;;1.70;99.90;;;;;;5098283;28;20189;-80
2022/12/06 01:33:41;;;;;;;16.53;8.87;;;1.70;99.90;;;;;;5080016;28;20213;-80
2022/12/06 01:36:07;;;;;;;13.27;7.67;;;1.70;99.90;;;;;;5079492;28;20179;-79
2022/12/06 01:38:32;;;;;;;18.83;9.33;;;1.70;99.90;;;;;;5079569;28;20567;-80
2022/12/06 01:40:59;;;;;;;13.97;9.03;;;1.70;99.90;;;;;;5079857;28;20189;-81
2022/12/06 01:43:39;;;;;;;11.97;8.77;;;1.70;99.90;;;;;;5079879;28;20561;-79
2022/12/06 01:46:28;;;;;;;12.67;8.80;;;1.70;99.90;;;;;;5079617;28;20181;-80
2022/12/06 01:49:12;;;;;;;12.73;8.37;;;1.70;99.90;;;;;;5079662;28;20240;-80
2022/12/06 01:52:01;;;;;;;19.47;9.70;;;1.70;99.90;;;;;;5079770;28;20170;-81
2022/12/06 01:54:28;;;;;;;16.70;9.53;;;1.70;99.90;;;;;;5097857;28;20194;-80
2022/12/06 01:56:55;;;;;;;20.87;9.00;;;1.70;99.90;;;;;;5079284;28;20198;-80
2022/12/06 01:59:22;;;;;;;16.83;10.30;;;1.70;99.90;;;;;;5079239;28;20176;-80
2022/12/06 02:01:48;;;;;;;14.20;8.83;;;1.70;99.90;;;;;;5097623;28;20253;-80
2022/12/06 02:04:15;;;;;;;13.77;8.67;;;1.70;99.90;;;;;;5079573;28;20622;-80
2022/12/06 02:06:41;;;;;;;16.67;8.70;;;1.70;99.90;;;;;;5097464;28;20285;-80
2022/12/06 02:09:08;;;;;;;15.07;9.70;;;1.70;99.90;;;;;;5097282;28;20288;-80
2022/12/06 02:11:35;;;;;;;20.90;9.70;;;1.70;99.90;;;;;;5079437;28;20668;-81
2022/12/06 02:14:03;;;;;;;16.07;9.63;;;1.80;99.90;;;;;;5079436;28;20209;-81
2022/12/06 02:17:03;;;;;;;19.43;10.67;;;1.70;99.90;;;;;;5097186;28;20194;-81
2022/12/06 02:19:45;;;;;;;18.60;10.40;;;1.70;99.90;;;;;;5028007;28;20644;-81
2022/12/06 02:22:26;;;;;;;20.40;11.27;;;1.80;99.90;;;;;;5079258;28;20197;-81
2022/12/06 02:25:25;;;;;;;16.50;10.03;;;1.80;99.90;;;;;;5079329;28;20237;-80
2022/12/06 02:28:20;;;;;;;21.57;10.70;;;1.80;99.90;;;;;;5078980;28;20254;-80
2022/12/06 02:30:57;;;;;;;19.53;11.00;;;1.80;99.90;;;;;;5098048;28;20163;-80
2022/12/06 02:33:32;;;;;;;18.97;10.90;;;1.80;99.90;;;;;;5079063;28;20198;-80
2022/12/06 02:36:06;;;;;;;20.47;10.67;;;1.80;99.90;;;;;;5096314;28;20201;-80
2022/12/06 02:38:37;;;;;;;18.07;10.03;;;1.80;99.90;;;;;;5078921;28;20209;-80
2022/12/06 02:41:08;;;;;;;21.20;10.43;;;1.90;99.90;;;;;;5097853;28;20216;-80
2022/12/06 02:43:39;;;;;;;17.97;11.57;;;1.90;99.90;;;;;;5097521;28;20167;-80
2022/12/06 02:46:06;;;;;;;22.70;10.43;;;1.90;99.90;;;;;;5078993;28;20190;-80
2022/12/06 02:48:33;;;;;;;21.40;12.00;;;1.90;99.90;;;;;;5078481;28;20534;-81
2022/12/06 02:51:03;;;;;;;21.77;11.70;;;1.90;99.90;;;;;;5078308;28;20186;-80
2022/12/06 02:53:31;;;;;;;26.00;11.37;;;1.90;99.90;;;;;;5096623;28;20296;-80
2022/12/06 02:55:57;;;;;;;28.80;10.87;;;1.90;99.90;;;;;;5078908;28;20667;-81
2022/12/06 02:58:23;;;;;;;18.67;10.83;;;1.90;99.90;;;;;;5096721;28;20186;-80
2022/12/06 03:00:55;;;;;;;17.93;10.60;;;1.90;99.90;;;;;;5096447;28;20170;-80
2022/12/06 03:03:38;;;;;;;18.90;10.40;;;1.90;99.90;;;;;;5096663;28;20167;-80
2022/12/06 03:06:30;;;;;;;19.23;10.47;;;1.90;99.90;;;;;;5079006;28;20189;-81
2022/12/06 03:09:15;;;;;;;18.93;11.80;;;1.90;99.90;;;;;;5095628;28;20555;-80
2022/12/06 03:12:03;;;;;;;20.37;10.87;;;1.90;99.90;;;;;;5096446;28;20247;-80
2022/12/06 03:14:38;;;;;;;17.30;10.17;;;1.90;99.90;;;;;;5096538;28;20251;-81
2022/12/06 03:17:20;;;;;;;19.77;11.67;;;1.90;99.90;;;;;;5078053;28;20258;-80
2022/12/06 03:19:52;;;;;;;16.80;9.70;;;1.90;99.90;;;;;;5096595;28;20162;-80
2022/12/06 03:22:24;;;;;;;18.70;11.27;;;1.90;99.90;;;;;;5079853;28;20174;-81
2022/12/06 03:24:51;;;;;;;19.73;10.63;;;1.90;99.90;;;;;;5079714;28;20174;-81
2022/12/06 03:27:19;;;;;;;17.43;10.60;;;1.90;99.90;;;;;;5078043;28;20680;-80
2022/12/06 03:29:51;;;;;;;15.37;9.90;;;1.90;99.90;;;;;;5096155;28;20171;-80
2022/12/06 03:32:21;;;;;;;17.43;10.37;;;1.90;99.90;;;;;;5096059;28;20197;-80
2022/12/06 03:34:50;;;;;;;19.33;9.90;;;1.90;99.90;;;;;;5096174;28;20186;-80
2022/12/06 03:37:20;;;;;;;24.47;10.67;;;1.90;99.90;;;;;;5095818;28;20198;-80
2022/12/06 03:40:01;;;;;;;16.30;9.83;;;1.90;99.90;;;;;;5077466;28;20179;-80
2022/12/06 03:42:29;;;;;;;19.50;10.67;;;1.90;99.90;;;;;;5078404;28;20598;-80
2022/12/06 03:44:55;;;;;;;16.03;10.20;;;1.90;99.90;;;;;;5077839;28;20308;-80
2022/12/06 03:47:30;;;;;;;19.57;11.43;;;1.90;99.90;;;;;;5077317;28;20221;-80
2022/12/06 03:50:06;;;;;;;16.93;10.13;;;1.90;99.90;;;;;;5078086;28;20502;-80
2022/12/06 03:52:32;;;;;;;20.50;10.67;;;1.90;99.90;;;;;;5077381;28;20175;-80
2022/12/06 03:54:58;;;;;;;19.10;10.30;;;1.90;99.90;;;;;;5096175;28;20543;-80
2022/12/06 03:57:24;;;;;;;19.13;10.43;;;1.90;99.90;;;;;;5077534;28;20194;-81
2022/12/06 03:59:49;;;;;;;25.03;12.47;;;2.00;99.90;;;;;;5077468;28;20174;-80
2022/12/06 04:02:15;;;;;;;20.73;11.63;;;2.00;99.90;;;;;;5077330;28;20213;-80
2022/12/06 04:04:40;;;;;;;19.87;11.20;;;1.90;99.90;;;;;;5077468;28;20185;-80
2022/12/06 04:07:06;;;;;;;18.17;10.37;;;1.90;99.90;;;;;;5078070;28;20205;-80
2022/12/06 04:14:59;;;;;;;21.67;10.60;;;1.90;99.90;;;;;;5096169;28;20584;-81
2022/12/06 04:20:09;;;;;;;19.70;10.70;;;2.00;99.90;;;;;;5095731;28;20170;-80
2022/12/06 04:25:19;;;;;;;19.47;10.90;;;2.00;99.90;;;;;;5095968;28;20180;-81
2022/12/06 04:38:41;;;;;;;22.87;11.97;;;2.00;99.90;;;;;;5095477;28;20227;-81
2022/12/06 04:41:10;;;;;;;23.17;12.13;;;2.00;99.90;;;;;;5094765;28;20162;-80
2022/12/06 04:43:41;;;;;;;19.37;10.87;;;2.00;99.90;;;;;;5094626;28;20185;-80
2022/12/06 04:46:16;;;;;;;25.17;12.63;;;2.00;99.90;;;;;;5076978;28;20201;-81
2022/12/06 04:48:42;;;;;;;19.77;11.63;;;2.00;99.90;;;;;;5095443;28;20165;-80
2022/12/06 04:51:11;;;;;;;23.17;10.77;;;2.00;99.90;;;;;;5076224;28;20174;-80
2022/12/06 04:53:37;;;;;;;21.90;10.63;;;2.00;99.90;;;;;;5076407;28;20206;-80
2022/12/06 04:56:02;;;;;;;20.83;10.47;;;2.00;99.90;;;;;;5094702;28;20174;-81
2022/12/06 04:58:28;;;;;;;24.00;11.67;;;2.00;99.90;;;;;;5094133;28;20661;-80
2022/12/06 05:00:54;;;;;;;21.67;11.47;;;2.10;99.90;;;;;;5076182;28;20186;-80
2022/12/06 05:03:20;;;;;;;25.60;11.90;;;2.00;99.90;;;;;;5076384;28;20177;-80
2022/12/06 05:05:46;;;;;;;20.83;10.73;;;2.00;99.90;;;;;;5076492;28;20184;-81
2022/12/06 05:08:12;;;;;;;20.00;11.63;;;2.00;99.90;;;;;;5094764;28;20678;-80
2022/12/06 05:10:38;;;;;;;24.83;12.17;;;2.00;99.90;;;;;;5077948;28;20182;-81
2022/12/06 05:13:04;;;;;;;22.30;11.30;;;2.00;99.90;;;;;;5079656;28;20229;-81
2022/12/06 05:15:30;;;;;;;21.83;11.67;;;2.10;99.90;;;;;;5099679;28;20189;-81
2022/12/06 05:17:55;;;;;;;21.93;11.97;;;2.00;99.90;;;;;;5080280;28;20198;-81
2022/12/06 05:20:21;;;;;;;23.73;11.03;;;2.00;99.90;;;;;;5100321;28;20170;-80
2022/12/06 05:22:47;;;;;;;21.57;11.83;;;2.10;99.90;;;;;;5081361;28;20182;-80
2022/12/06 05:25:13;;;;;;;16.80;9.97;;;2.10;99.90;;;;;;5098598;28;20202;-80
2022/12/06 05:27:39;;;;;;;21.17;11.10;;;2.00;99.90;;;;;;5078749;28;20218;-81
2022/12/06 05:30:05;;;;;;;19.77;10.87;;;2.10;99.90;;;;;;5080662;28;20656;-81
2022/12/06 05:32:31;;;;;;;17.77;10.30;;;2.10;99.90;;;;;;5081056;28;20183;-80
2022/12/06 05:34:56;;;;;;;19.20;10.90;;;2.10;99.90;;;;;;5078972;28;20171;-81
2022/12/06 05:37:22;;;;;;;22.00;10.53;;;2.10;99.90;;;;;;5097392;28;20650;-81
2022/12/06 05:39:47;;;;;;;16.00;9.57;;;2.10;99.90;;;;;;5097021;28;20174;-80
2022/12/06 05:42:13;;;;;;;22.13;11.03;;;2.10;99.90;;;;;;5097890;28;20536;-80
2022/12/06 05:44:40;;;;;;;20.40;11.17;;;2.10;99.90;;;;;;5078323;28;20188;-80
2022/12/06 05:47:06;;;;;;;19.50;12.00;;;2.10;99.90;;;;;;5094705;28;20197;-80
2022/12/06 05:49:32;;;;;;;21.07;10.77;;;2.10;99.90;;;;;;5094248;28;20188;-78
2022/12/06 05:51:57;;;;;;;20.30;10.77;;;2.10;99.90;;;;;;5093224;28;20557;-79
2022/12/06 05:54:23;;;;;;;21.40;10.97;;;2.10;99.90;;;;;;5075513;28;20703;-80
2022/12/06 05:56:49;;;;;;;20.27;11.47;;;2.10;99.90;;;;;;5093725;28;20198;-81
2022/12/06 05:59:14;;;;;;;20.67;11.63;;;2.20;99.90;;;;;;5077171;28;20181;-81
2022/12/06 06:01:40;;;;;;;20.93;11.30;;;2.10;99.90;;;;;;5076906;28;20546;-81
2022/12/06 06:04:05;;;;;;;21.33;11.13;;;2.20;99.90;;;;;;5076894;28;20273;-81
2022/12/06 06:06:31;;;;;;;25.00;11.20;;;2.20;99.90;;;;;;5078101;28;20205;-80
2022/12/06 06:08:56;;;;;;;20.07;11.33;;;2.20;99.90;;;;;;5078120;28;20175;-80
2022/12/06 06:11:22;;;;;;;21.70;11.57;;;2.20;99.90;;;;;;5099702;28;20174;-80
2022/12/06 06:13:47;;;;;;;21.33;11.10;;;2.20;99.90;;;;;;5081324;28;20572;-81
2022/12/06 06:16:13;;;;;;;24.17;11.47;;;2.20;99.90;;;;;;5080769;28;20166;-82
2022/12/06 06:18:39;;;;;;;20.10;10.20;;;2.20;99.90;;;;;;5098880;28;20171;-81
2022/12/06 06:21:04;;;;;;;21.70;11.60;;;2.20;99.90;;;;;;5083810;28;20194;-81
2022/12/06 06:23:31;;;;;;;20.33;11.40;;;2.20;99.90;;;;;;5073931;28;20688;-81
2022/12/06 06:25:56;;;;;;;20.27;10.80;;;2.20;99.90;;;;;;5064588;28;20676;-81
2022/12/06 06:28:22;;;;;;;21.33;12.00;;;2.20;99.90;;;;;;5082001;28;20266;-79
2022/12/06 06:30:47;;;;;;;17.97;10.33;;;2.30;99.90;;;;;;5062638;28;20245;-80
2022/12/06 06:33:14;;;;;;;22.83;10.70;;;2.20;99.90;;;;;;5061138;28;20293;-80
2022/12/06 06:35:40;;;;;;;22.90;11.40;;;2.30;99.90;;;;;;5077686;28;20195;-80
2022/12/06 06:38:06;;;;;;;19.60;10.33;;;2.30;99.90;;;;;;5077356;28;20218;-81
2022/12/06 06:40:32;;;;;;;22.03;11.97;;;2.30;99.90;;;;;;5059734;28;20174;-81
2022/12/06 06:43:16;;;;;;;20.60;11.13;;;2.30;99.90;;;;;;5078013;28;20183;-81
2022/12/06 06:45:52;;;;;;;18.57;10.33;;;2.30;99.90;;;;;;5078692;28;20177;-81
2022/12/06 06:48:18;;;;;;;20.00;11.27;;;2.30;99.90;;;;;;5079508;28;20198;-80
2022/12/06 06:50:44;;;;;;;20.90;11.67;;;2.30;99.90;;;;;;5060207;28;20239;-82
2022/12/06 06:53:09;;;;;;;18.10;11.27;;;2.30;99.90;;;;;;5076429;28;20566;-81
2022/12/06 06:55:36;;;;;;;16.97;10.37;;;2.30;99.90;;;;;;5064058;28;20170;-79
2022/12/06 06:58:02;;;;;;;18.80;10.83;;;2.30;99.90;;;;;;5081925;28;20189;-81
2022/12/06 07:00:27;;;;;;;18.93;10.90;;;2.30;99.90;;;;;;5081704;28;20539;-80
2022/12/06 07:02:53;;;;;;;15.40;10.00;;;2.30;99.90;;;;;;5083996;28;20174;-80
2022/12/06 07:05:18;;;;;;;19.20;10.83;;;2.30;99.90;;;;;;5075630;28;20190;-79
2022/12/06 07:07:45;;;;;;;23.83;11.33;;;2.30;99.90;;;;;;5089985;28;20202;-80
2022/12/06 07:10:11;;;;;;;20.00;11.17;;;2.30;99.90;;;;;;5062573;28;20179;-80
2022/12/06 07:12:37;;;;;;;21.83;11.13;;;2.40;99.90;;;;;;5079066;28;20260;-80
2022/12/06 07:15:04;;;;;;;19.50;11.30;;;2.40;99.90;;;;;;5079341;28;20175;-80
2022/12/06 07:17:29;;;;;;;21.43;10.13;;;2.40;99.90;;;;;;5078171;28;20604;-80
2022/12/06 07:19:55;;;;;;;19.33;10.50;;;2.40;99.90;;;;;;5079369;28;20179;-81
2022/12/06 07:22:20;;;;;;;18.90;10.13;;;2.40;99.90;;;;;;5059798;28;20171;-80
2022/12/06 07:24:46;;;;;;;18.83;10.93;;;2.40;99.90;;;;;;5079132;28;20198;-81
2022/12/06 07:27:11;;;;;;;23.07;10.10;;;2.50;99.90;;;;;;5060961;28;20222;-80
2022/12/06 07:29:37;;;;;;;17.30;9.43;;;2.40;99.90;;;;;;5077774;28;20181;-80
2022/12/06 07:32:03;;;;;;;17.97;10.50;;;2.40;99.90;;;;;;5060686;28;20193;-80
2022/12/06 07:34:29;;;;;;;17.27;10.83;;;2.40;99.90;;;;;;5079337;28;20206;-80
2022/12/06 07:36:55;;;;;;;19.30;10.67;;;2.40;99.90;;;;;;5060990;28;20214;-80
2022/12/06 07:39:20;;;;;;;20.17;11.03;;;2.40;99.90;;;;;;5077074;28;20595;-80
2022/12/06 07:47:36;;;;;;;17.60;10.50;;;2.40;99.90;;;;;;5056121;28;20201;-80
2022/12/06 07:50:04;;;;;;;20.63;11.10;;;2.50;99.90;;;;;;5056793;28;20655;-80
2022/12/06 07:52:34;;;;;;;19.20;11.03;;;2.50;99.90;;;;;;5067205;28;20194;-80
2022/12/06 07:55:00;;;;;;;21.53;11.30;;;2.50;99.90;;;;;;5061052;28;20175;-80
2022/12/06 07:57:26;;;;;;;15.63;10.30;;;2.50;99.90;;;;;;5078853;28;20209;-80
2022/12/06 07:59:51;;;;;;;19.67;10.73;;;2.50;99.90;;;;;;5077463;28;20179;-80
2022/12/06 08:02:20;;;;;;;23.10;11.03;;;2.50;99.90;;;;;;5076813;28;20197;-80
2022/12/06 08:04:45;;;;;;;19.77;11.63;;;2.60;99.90;;;;;;5078679;28;20175;-80
2022/12/06 08:07:12;;;;;;;18.77;11.07;;;2.50;99.90;;;;;;5078256;28;20580;-80
2022/12/06 08:09:37;;;;;;;18.97;11.03;;;2.60;99.90;;;;;;5060437;28;20274;-80
2022/12/06 08:12:03;;;;;;;21.97;10.37;;;2.70;99.90;;;;;;5078612;28;20211;-80
2022/12/06 08:14:29;;;;;;;18.27;11.37;;;2.60;99.90;;;;;;5059996;28;20225;-80
2022/12/06 08:16:54;;;;;;;20.43;11.00;;;2.70;99.90;;;;;;5076985;28;20210;-80
2022/12/06 08:19:20;;;;;;;18.93;11.23;;;2.60;99.90;;;;;;5076256;28;20730;-79
2022/12/06 08:21:45;;;;;;;18.83;10.30;;;2.60;99.90;;;;;;5076827;28;20642;-80
2022/12/06 08:24:11;;;;;;;19.90;10.30;;;2.70;99.90;;;;;;5077751;28;20254;-81
2022/12/06 08:26:36;;;;;;;17.47;10.80;;;2.70;99.90;;;;;;5077378;28;20199;-80
2022/12/06 08:29:03;;;;;;;20.00;10.67;;;2.70;99.90;;;;;;5076209;28;20642;-80
2022/12/06 08:31:30;;;;;;;21.60;11.23;;;2.70;99.90;;;;;;5059534;28;20608;-80
2022/12/06 08:33:56;;;;;;;23.07;12.17;;;2.70;99.90;;;;;;5058909;28;20742;-81
2022/12/06 08:36:23;;;;;;;20.07;11.37;;;2.50;99.90;;;;;;5077009;28;20186;-80
2022/12/06 08:38:50;;;;;;;20.43;11.53;;;2.80;99.90;;;;;;5077328;28;20156;-81
2022/12/06 08:44:02;;;;;;;21.53;11.50;;;2.80;99.90;;;;;;5078087;28;20169;-80
2022/12/06 08:46:28;;;;;;;21.87;10.73;;;2.80;99.90;;;;;;5077279;28;20216;-80
2022/12/06 08:48:54;;;;;;;20.93;11.13;;;2.80;99.90;;;;;;5076979;28;20167;-80
2022/12/06 08:51:20;;;;;;;21.60;11.07;;;2.80;99.90;;;;;;5077350;28;20183;-80
2022/12/06 08:53:46;;;;;;;22.00;11.67;;;2.90;99.90;;;;;;5059408;28;20202;-80
2022/12/06 08:56:12;;;;;;;21.70;10.83;;;3.00;99.90;;;;;;5077622;28;20638;-80
2022/12/06 08:58:37;;;;;;;24.77;12.07;;;3.00;99.90;;;;;;5076943;28;20175;-80
2022/12/06 09:01:21;;;;;;;18.33;11.23;;;3.00;99.90;;;;;;5077505;28;20209;-80
2022/12/06 09:03:46;;;;;;;26.20;13.13;;;3.00;99.90;;;;;;5059404;28;20589;-81
2022/12/06 09:06:12;;;;;;;21.93;11.77;;;3.00;99.90;;;;;;5076168;28;20174;-81
2022/12/06 09:08:38;;;;;;;25.57;12.77;;;3.00;99.90;;;;;;5077186;28;20182;-80
2022/12/06 09:11:05;;;;;;;28.17;13.33;;;3.00;99.90;;;;;;5061304;28;20247;-81
2022/12/06 09:13:31;;;;;;;24.77;12.63;;;3.10;99.90;;;;;;5074067;28;20285;-80
2022/12/06 09:15:57;;;;;;;28.43;12.80;;;3.00;99.90;;;;;;5077520;28;20183;-81
2022/12/06 09:18:22;;;;;;;22.63;12.67;;;3.00;99.90;;;;;;5084893;28;20704;-80
2022/12/06 09:20:48;;;;;;;23.50;10.80;;;3.00;99.90;;;;;;5078363;28;20170;-81
2022/12/06 09:23:14;;;;;;;22.13;12.17;;;3.10;99.90;;;;;;5076418;28;20228;-81
2022/12/06 09:25:42;;;;;;;25.37;11.87;;;3.20;99.90;;;;;;5076739;28;20190;-80
2022/12/06 09:28:09;;;;;;;23.60;12.57;;;3.30;99.90;;;;;;5075451;28;20293;-81
2022/12/06 09:30:34;;;;;;;24.20;11.93;;;3.30;99.90;;;;;;5058787;28;20189;-80
2022/12/06 09:33:00;;;;;;;26.17;13.07;;;3.30;99.90;;;;;;5058597;28;20199;-80
2022/12/06 09:35:26;;;;;;;20.20;11.57;;;3.30;99.90;;;;;;5076106;28;20258;-81
2022/12/06 09:37:52;;;;;;;21.23;11.83;;;3.30;99.90;;;;;;5077885;28;20236;-82
2022/12/06 09:40:32;;;;;;;23.07;11.77;;;3.40;99.90;;;;;;5077033;28;20201;-79
2022/12/06 09:43:14;;;;;;;20.67;10.27;;;3.30;99.90;;;;;;5056874;28;20200;-78
2022/12/06 09:45:48;;;;;;;21.97;10.27;;;3.40;99.90;;;;;;5077812;28;20610;-78
2022/12/06 09:48:19;;;;;;;30.27;13.17;;;3.40;99.90;;;;;;5060244;28;20203;-78
2022/12/06 09:51:03;;;;;;;27.03;12.60;;;3.40;99.90;;;;;;5078604;28;20658;-78
2022/12/06 09:53:46;;;;;;;21.07;11.60;;;3.50;99.90;;;;;;5059486;28;20301;-77
2022/12/06 09:56:36;;;;;;;17.93;9.70;;;3.40;99.90;;;;;;5077161;28;20198;-78
2022/12/06 09:59:31;;;;;;;25.60;12.17;;;3.60;99.90;;;;;;5077683;28;20155;-78
2022/12/06 10:02:06;;;;;;;20.40;10.57;;;3.60;99.90;;;;;;5060451;28;20637;-78
2022/12/06 10:04:31;;;;;;;20.33;10.40;;;3.60;99.90;;;;;;5078551;28;20163;-78
2022/12/06 10:07:40;;;;;;;21.33;12.00;;;3.70;99.90;;;;;;5060174;28;20202;-78
2022/12/06 10:10:20;;;;;;;14.93;8.70;;;3.70;99.90;;;;;;5078262;28;20167;-78
2022/12/06 10:13:19;;;;;;;21.93;10.40;;;3.80;99.90;;;;;;5059787;28;20166;-78
2022/12/06 10:16:36;;;;;;;15.00;8.60;;;3.80;99.90;;;;;;5078208;28;20151;-78
2022/12/06 10:19:25;;;;;;;23.60;10.77;;;3.90;99.90;;;;;;5078069;28;20147;-78
2022/12/06 10:21:56;;;;;;;17.27;9.90;;;3.90;99.90;;;;;;5078222;28;20238;-78
2022/12/06 10:24:21;;;;;;;13.70;8.10;;;4.00;99.90;;;;;;5078899;28;20163;-78
2022/12/06 10:26:50;;;;;;;20.40;11.00;;;4.00;99.90;;;;;;5079433;28;20556;-78
2022/12/06 10:29:20;;;;;;;22.30;10.87;;;4.00;99.90;;;;;;5060097;28;20178;-78
2022/12/06 10:32:03;;;;;;;19.83;10.30;;;4.10;99.90;;;;;;5081601;28;20179;-80
2022/12/06 10:34:35;;;;;;;18.60;11.23;;;4.20;99.90;;;;;;5079995;28;20198;-82
2022/12/06 10:37:10;;;;;;;17.23;8.10;;;4.20;99.90;;;;;;5081211;28;20230;-80
2022/12/06 10:40:16;;;;;;;15.50;9.23;;;4.30;99.90;;;;;;5084442;28;20210;-80
2022/12/06 10:42:52;;;;;;;20.13;9.83;;;4.40;99.90;;;;;;5079861;28;20266;-80
2022/12/06 10:48:24;;;;;;;17.10;8.47;;;4.50;99.90;;;;;;5079268;28;20213;-81
2022/12/06 10:51:11;;;;;;;13.03;7.40;;;4.60;99.90;;;;;;5079805;28;20191;-80
2022/12/06 10:53:46;;;;;;;14.67;7.87;;;4.70;99.90;;;;;;5061057;28;20198;-81
2022/12/06 10:56:21;;;;;;;17.23;8.03;;;4.80;99.90;;;;;;5078132;28;20681;-81
2022/12/06 10:58:55;;;;;;;13.20;7.70;;;4.80;99.90;;;;;;5078460;28;20160;-81
2022/12/06 11:01:28;;;;;;;13.23;8.60;;;4.90;99.90;;;;;;5061338;28;20185;-81
2022/12/06 11:04:08;;;;;;;15.87;7.20;;;4.90;99.90;;;;;;5078572;28;20159;-81
2022/12/06 11:06:49;;;;;;;13.23;7.13;;;5.00;99.90;;;;;;5061008;28;20190;-81
2022/12/06 11:09:41;;;;;;;12.67;7.13;;;5.00;99.90;;;;;;5061065;28;20224;-81
2022/12/06 11:12:27;;;;;;;13.70;7.50;;;5.10;99.90;;;;;;5060578;28;20197;-81
2022/12/06 11:15:00;;;;;;;12.43;7.20;;;5.10;99.90;;;;;;5060363;28;20195;-81
2022/12/06 11:17:32;;;;;;;12.90;7.20;;;5.10;99.90;;;;;;5060739;28;20191;-81
2022/12/06 11:20:03;;;;;;;22.03;7.47;;;5.20;99.90;;;;;;5078699;28;20530;-81
2022/12/06 11:22:38;;;;;;;13.37;8.17;;;5.20;99.90;;;;;;5078670;28;20165;-81
2022/12/06 11:25:30;;;;;;;14.87;7.83;;;5.30;99.90;;;;;;5060491;28;20174;-81
2022/12/06 11:28:10;;;;;;;12.77;8.57;;;5.30;99.90;;;;;;5060625;28;20195;-81
2022/12/06 11:30:36;;;;;;;16.97;8.67;;;5.30;99.90;;;;;;5061250;28;20163;-81
2022/12/06 11:33:03;;;;;;;16.07;8.37;;;5.40;99.90;;;;;;5078364;28;20681;-82
2022/12/06 11:35:28;;;;;;;15.70;8.03;;;5.50;99.90;;;;;;5078068;28;20174;-81
2022/12/06 11:38:00;;;;;;;15.57;7.80;;;5.40;99.90;;;;;;5059611;28;20203;-82
2022/12/06 11:40:30;;;;;;;13.97;7.93;;;5.50;99.90;;;;;;5060126;28;20220;-82
2022/12/06 11:42:59;;;;;;;14.17;7.90;;;5.50;99.90;;;;;;5060299;28;20257;-82
2022/12/06 11:45:28;;;;;;;19.33;8.37;;;5.50;99.90;;;;;;5077955;28;20250;-81
2022/12/06 11:47:55;;;;;;;13.60;6.97;;;5.50;99.90;;;;;;5059674;28;20191;-81
2022/12/06 11:50:23;;;;;;;15.37;7.50;;;5.50;99.90;;;;;;5078231;28;20167;-81
2022/12/06 11:53:01;;;;;;;16.37;7.37;;;5.50;99.90;;;;;;5059747;28;20313;-82
2022/12/06 11:55:32;;;;;;;17.83;7.47;;;5.60;99.90;;;;;;5077715;28;20186;-81
2022/12/06 11:58:10;;;;;;;14.17;7.53;;;5.60;99.90;;;;;;5059889;28;20550;-82
2022/12/06 12:00:36;;;;;;;14.77;6.80;;;5.60;99.90;;;;;;5078058;28;20519;-82
2022/12/06 12:03:02;;;;;;;11.40;6.70;;;5.60;99.90;;;;;;5078263;28;20553;-82
2022/12/06 12:05:35;;;;;;;13.57;7.27;;;5.70;99.90;;;;;;5059521;28;20189;-82
2022/12/06 12:08:05;;;;;;;17.40;7.47;;;5.70;99.90;;;;;;5059529;28;20550;-82
2022/12/06 12:10:32;;;;;;;11.87;7.13;;;5.80;99.90;;;;;;5077950;28;20257;-81
2022/12/06 12:16:27;;;;;;;11.70;6.33;;;5.80;99.90;;;;;;5077695;28;20218;-82
2022/12/06 12:18:55;;;;;;;10.73;7.10;;;5.80;99.90;;;;;;5075142;28;20683;-82
2022/12/06 12:21:38;;;;;;;11.03;8.23;;;5.80;99.90;;;;;;5077292;28;20241;-82
2022/12/06 12:24:25;;;;;;;15.47;7.20;;;5.80;99.90;;;;;;5059174;28;20182;-82
2022/12/06 12:26:50;;;;;;;11.57;7.00;;;5.80;99.90;;;;;;5059190;28;20203;-82
2022/12/06 12:29:19;;;;;;;12.47;6.77;;;5.90;99.90;;;;;;5059577;28;20551;-82
2022/12/06 12:31:57;;;;;;;13.97;6.30;;;5.90;99.90;;;;;;5077403;28;20175;-82
2022/12/06 12:34:26;;;;;;;9.20;5.87;;;5.80;99.90;;;;;;5060083;28;20569;-82
2022/12/06 12:37:03;;;;;;;9.57;6.17;;;5.80;99.90;;;;;;5058379;28;20207;-82
2022/12/06 12:39:44;;;;;;;7.83;5.67;;;5.80;99.90;;;;;;5059170;28;20654;-82
2022/12/06 12:42:33;;;;;;;9.13;5.67;;;5.90;99.90;;;;;;5075596;28;20163;-82
2022/12/06 12:45:01;;;;;;;8.07;5.50;;;5.70;99.90;;;;;;5057157;28;20178;-82
2022/12/06 12:47:27;;;;;;;7.57;5.33;;;5.80;99.90;;;;;;5057363;28;20207;-83
2022/12/06 12:50:12;;;;;;;8.13;5.10;;;5.70;99.90;;;;;;5057555;28;20194;-82
2022/12/06 12:52:39;;;;;;;6.50;4.47;;;5.70;99.90;;;;;;5075412;28;20182;-83
2022/12/06 12:55:11;;;;;;;7.00;4.90;;;5.60;99.90;;;;;;5075932;28;20657;-82
2022/12/06 12:57:37;;;;;;;9.53;4.50;;;5.60;99.90;;;;;;5076125;28;20589;-82
2022/12/06 13:00:03;;;;;;;6.50;4.60;;;5.60;99.90;;;;;;5057690;28;20171;-82
2022/12/06 13:02:30;;;;;;;6.97;4.53;;;5.50;99.90;;;;;;5058337;28;20196;-81
2022/12/06 13:05:01;;;;;;;7.03;3.87;;;5.50;99.90;;;;;;5077354;28;20197;-82
2022/12/06 13:07:30;;;;;;;4.97;3.77;;;5.40;99.90;;;;;;5077043;28;20252;-82
2022/12/06 13:10:07;;;;;;;10.23;4.17;;;5.40;99.90;;;;;;5076445;28;20199;-82
2022/12/06 13:12:46;;;;;;;6.90;3.77;;;5.40;99.90;;;;;;5077911;28;20233;-83
2022/12/06 13:15:35;;;;;;;4.43;3.57;;;5.50;99.90;;;;;;5076748;28;20201;-82
2022/12/06 13:18:11;;;;;;;6.90;4.17;;;5.50;99.90;;;;;;5076115;28;20265;-83
2022/12/06 13:20:38;;;;;;;6.20;4.40;;;5.50;99.90;;;;;;5058707;28;20201;-82
2022/12/06 13:23:13;;;;;;;6.10;4.37;;;5.60;99.90;;;;;;5059083;28;20181;-83
2022/12/06 13:25:43;;;;;;;5.23;3.73;;;5.60;99.90;;;;;;5076813;28;20217;-82
2022/12/06 13:28:17;;;;;;;4.67;4.03;;;5.60;99.90;;;;;;5057786;28;20198;-82
2022/12/06 13:30:44;;;;;;;4.90;3.37;;;5.60;99.90;;;;;;5076209;28;20162;-83
2022/12/06 13:33:24;;;;;;;5.90;3.83;;;5.60;99.90;;;;;;5057488;28;20210;-82
2022/12/06 13:35:58;;;;;;;7.87;4.23;;;5.60;99.90;;;;;;5058044;28;20174;-83